• Join FlightAware (Why Join?)
  • Login
  • US Flag 
09:52PM EDT


 

Airport Tracker/Info


-or-


 

Live Flight TrackerFlight Track Log ✈ SWA472 ✈ 23-Jun-2013 ✈ KCLE - KBWI

Flight Track Log - Related Links

Times and Time Zones

All times are in EDT time to prevent confusion due to time zone crossing. See the SWA472 flight status page for this flight to view local times or setup timezone preferences in your user account.

Time Position Orientation Groundspeed Altitude Reporting Facility
EDT Latitude Longitude Course Direction KTS MPH feet Rate Location/Type
02:08PM 41.3211 -81.8633 184° South 255 293 4,300  Level Cleveland Center
02:08PM 41.3175 -81.8161 96° East 256 295 6,300 2,700 Climbing Cleveland Center
02:09PM 41.3122 -81.7139 94° East 291 335 8,700 2,220 Climbing Cleveland Center
02:10PM 41.2739 -81.6025 115° Southeast 291 335 10,800 2,160 Climbing Cleveland Center
02:11PM 41.2247 -81.4886 120° Southeast 315 362 13,100 2,100 Climbing Cleveland Center
02:12PM 41.1797 -81.3831 120° Southeast 331 381 15,100 2,100 Climbing Cleveland Center
02:13PM 41.1303 -81.2586 118° Southeast 371 427 17,400 2,040 Climbing Cleveland Center
02:14PM 41.0453 -81.1778 144° Southeast 393 452 19,200 1,920 Climbing Cleveland Center
02:15PM 40.9392 -81.1411 165° South 383 441 21,300 1,980 Climbing Cleveland Center
02:16PM 40.8331 -81.1044 165° South 393 452 23,200 1,740 Climbing Cleveland Center
02:17PM 40.7125 -81.0625 165° South 401 461 24,800 1,380 Climbing Cleveland Center
02:18PM 40.6042 -81.0178 163° South 401 461 26,000 1,380 Climbing Cleveland Center
02:19PM 40.5275 -80.9081 133° Southeast 393 452 27,600 1,500 Climbing Cleveland Center
02:20PM 40.4694 -80.7769 120° Southeast 393 452 29,000 660 Climbing Cleveland Center
02:21PM 40.4089 -80.6514 122° Southeast 405 466 29,000  Level Cleveland Center
02:22PM 40.3486 -80.5231 122° Southeast 411 473 29,000  Level Cleveland Center
02:23PM 40.2900 -80.4008 122° Southeast 411 473 29,000  Level Cleveland Center
02:24PM 40.2253 -80.2758 124° Southeast 411 473 29,000  Level Cleveland Center
02:25PM 40.1686 -80.1511 121° Southeast 403 464 29,000  Level Cleveland Center
02:26PM 40.1094 -80.0239 121° Southeast 410 472 29,000  Level Cleveland Center
02:27PM 40.0611 -79.9131 120° Southeast 410 472 29,000  Level Cleveland Center
02:28PM 40.0019 -79.7917 122° Southeast 410 472 29,000  Level Cleveland Center
02:29PM 39.9425 -79.6678 122° Southeast 410 472 29,000 -120 Level Cleveland Center
02:31PM 39.8314 -79.4472 123° Southeast 393 452 28,700 -420 Descending Washington Center
02:32PM 39.7556 -79.3406 133° Southeast 393 452 27,800 -960 Descending Washington Center
02:33PM 39.6881 -79.2267 128° Southeast 398 458 26,800 -1,440 Descending Washington Center
02:34PM 39.6228 -79.1100 126° Southeast 403 464 25,000 -1,680 Descending Washington Center
02:35PM 39.6058 -78.9772 99° East 374 430 23,500 -1,680 Descending Washington Center
02:36PM 39.5619 -78.8297 111° Southeast 386 444 21,700 -1,440 Descending Washington Center
02:37PM 39.5383 -78.6994 103° East 386 444 20,700 -1,020 Descending Washington Center
02:38PM 39.5167 -78.5669 102° East 381 438 19,700 -960 Descending Washington Center
02:39PM 39.4928 -78.4342 103° East 376 433 18,800 -1,140 Descending Washington Center
02:40PM 39.4706 -78.3069 103° East 376 433 17,500 -1,920 Descending Washington Center
02:41PM 39.4425 -78.1661 104° East 381 438 15,000 -1,320 Descending Washington Center
02:42PM 39.4328 -78.0314 95° East 381 438 15,000  Level Washington Center
02:43PM 39.4353 -77.8997 89° East 375 432 15,000  Level Washington Center
02:44PM 39.4378 -77.7681 89° East 364 419 15,000 -240 Level Washington Center
02:45PM 39.4400 -77.6392 89° East 364 419 14,600 -960 Descending Washington Center
02:46PM 39.4419 -77.5131 89° East 364 419 13,100 -1,680 Descending Washington Center
02:47PM 39.4439 -77.3922 89° East 348 400 11,200 -1,140 Descending Washington Center
02:48PM 39.4500 -77.3000 85° East 327 376 11,000 -180 Descending Potomac TRACON
02:49PM 39.4667 -77.1833 79° East 334 384 10,900 -720 Descending Potomac TRACON
02:50PM 39.4833 -77.0667 79° East 313 360 9,700 -1,440 Descending Potomac TRACON
02:51PM 39.5000 -76.9667 78° East 295 339 8,200 -1,380 Descending Potomac TRACON
02:52PM 39.5333 -76.8833 63° Northeast 279 321 7,000 -720 Descending Potomac TRACON
02:53PM 39.5500 -76.7833 78° East 283 326 6,800 -780 Descending Potomac TRACON
02:54PM 39.5167 -76.7000 117° Southeast 287 330 5,500 -1,080 Descending Potomac TRACON
02:55PM 39.4500 -76.6333 142° Southeast 278 320 4,800 -780 Descending Potomac TRACON
02:56PM 39.4000 -76.5667 134° Southeast 267 307 4,000 -420 Descending Potomac TRACON
02:57PM 39.3500 -76.5167 142° Southeast 250 288 4,000  Level Potomac TRACON
02:58PM 39.3000 -76.4833 153° Southeast 223 257 4,000  Level Potomac TRACON
02:59PM 39.2333 -76.4333 150° Southeast 225 259 4,000  Level Potomac TRACON
03:00PM 39.1833 -76.4000 153° Southeast 231 266 4,000 -300 Level Potomac TRACON
03:01PM 39.1333 -76.4167 194° South 189 217 3,400 -540 Descending Potomac TRACON
03:02PM 39.1000 -76.4667 229° Southwest 190 219 3,000 -540 Descending Potomac TRACON
03:03PM 39.0667 -76.5167 229° Southwest 184 212 2,400 -540 Descending Potomac TRACON
03:04PM 39.0667 -76.5667 270° West 196 226 2,000 -480 Descending Potomac TRACON
03:05PM 39.1167 -76.6167 322° Northwest 167 192 1,500 -540 Descending Potomac TRACON